createdAt,value
2022-12-06T00:00:38.960Z,2.8
2022-12-06T00:01:47.375Z,2.8
2022-12-06T00:02:55.709Z,2.8
2022-12-06T00:04:04.215Z,3.3
2022-12-06T00:05:12.559Z,3.3
2022-12-06T00:06:20.927Z,3.3
2022-12-06T00:07:29.477Z,3.4
2022-12-06T00:08:37.826Z,3.4
2022-12-06T00:09:46.167Z,3.4
2022-12-06T00:10:54.722Z,3.7
2022-12-06T00:12:03.070Z,3.7
2022-12-06T00:13:11.419Z,3.7
2022-12-06T00:14:19.977Z,3.1
2022-12-06T00:15:28.320Z,3.1
2022-12-06T00:16:36.715Z,3.1
2022-12-06T00:17:45.221Z,3
2022-12-06T00:18:53.562Z,3
2022-12-06T00:20:02.111Z,3
2022-12-06T00:21:10.458Z,2.4
2022-12-06T00:22:18.828Z,2.4
2022-12-06T00:23:31.467Z,2.4
2022-12-06T00:24:35.687Z,2.9
2022-12-06T00:25:44.065Z,2.9
2022-12-06T00:26:52.420Z,2.9
2022-12-06T00:28:00.976Z,3.2
2022-12-06T00:29:09.313Z,3.2
2022-12-06T00:30:17.648Z,3.2
2022-12-06T00:31:26.234Z,2.5
2022-12-06T00:32:34.552Z,2.5
2022-12-06T00:33:42.896Z,2.5
2022-12-06T00:34:51.434Z,2.6
2022-12-06T00:35:59.786Z,2.6
2022-12-06T00:37:08.137Z,2.6
2022-12-06T00:38:16.737Z,2.7
2022-12-06T00:39:25.055Z,2.7
2022-12-06T00:40:33.400Z,2.7
2022-12-06T00:41:41.962Z,2.8
2022-12-06T00:42:50.301Z,2.8
2022-12-06T00:43:58.653Z,2.8
2022-12-06T00:45:07.206Z,2.7
2022-12-06T00:46:15.688Z,2.7
2022-12-06T00:47:23.901Z,2.7
2022-12-06T00:48:32.456Z,2.6
2022-12-06T00:49:40.801Z,2.6
2022-12-06T00:50:49.143Z,2.6
2022-12-06T00:51:57.697Z,2.9
2022-12-06T00:53:06.026Z,2.9
2022-12-06T00:54:14.391Z,2.9
2022-12-06T00:55:22.915Z,2.8
2022-12-06T00:56:31.267Z,2.8
2022-12-06T00:57:39.625Z,2.8
2022-12-06T00:58:48.179Z,2.7
2022-12-06T00:59:56.677Z,2.7
2022-12-06T01:01:05.011Z,2.7
2022-12-06T01:02:13.427Z,2.7
2022-12-06T01:03:21.886Z,2.7
2022-12-06T01:04:30.147Z,2.7
2022-12-06T01:05:38.705Z,2.9
2022-12-06T01:06:47.049Z,2.9
2022-12-06T01:07:55.413Z,2.9
2022-12-06T01:09:03.980Z,2.9
2022-12-06T01:10:12.347Z,2.9
2022-12-06T01:11:20.671Z,2.9
2022-12-06T01:12:29.256Z,3.3
2022-12-06T01:13:37.610Z,3.3
2022-12-06T01:14:45.954Z,3.3
2022-12-06T01:15:54.527Z,3.4
2022-12-06T01:17:03.009Z,3.4
2022-12-06T01:18:11.222Z,3.4
2022-12-06T01:19:19.758Z,3.3
2022-12-06T01:20:28.103Z,3.3
2022-12-06T01:21:36.456Z,3.3
2022-12-06T01:22:45.035Z,3.2
2022-12-06T01:23:53.379Z,3.2
2022-12-06T01:25:01.732Z,3.2
2022-12-06T01:26:10.299Z,3.4
2022-12-06T01:27:18.625Z,3.4
2022-12-06T01:28:26.968Z,3.4
2022-12-06T01:29:35.525Z,3.5
2022-12-06T01:30:43.937Z,3.5
2022-12-06T01:31:52.247Z,3.5
2022-12-06T01:33:00.795Z,3.2
2022-12-06T01:34:09.147Z,3.2
2022-12-06T01:35:17.491Z,3.2
2022-12-06T01:36:26.048Z,3.1
2022-12-06T01:37:34.399Z,3.1
2022-12-06T01:38:42.717Z,3.1
2022-12-06T01:39:51.263Z,3.3
2022-12-06T01:40:59.607Z,3.3
2022-12-06T01:42:07.995Z,3.3
2022-12-06T01:43:16.528Z,3.1
2022-12-06T01:44:24.872Z,3.1
2022-12-06T01:45:33.208Z,3.1
2022-12-06T01:46:41.893Z,3.4
2022-12-06T01:47:50.144Z,3.4
2022-12-06T01:48:58.494Z,3.4
2022-12-06T01:50:07.049Z,3.4
2022-12-06T01:51:15.393Z,3.4
2022-12-06T01:52:23.763Z,3.4
2022-12-06T01:53:32.316Z,3.6
2022-12-06T01:54:40.673Z,3.6
2022-12-06T01:55:49.015Z,3.6
2022-12-06T01:56:57.581Z,3.9
2022-12-06T01:58:05.929Z,3.9
2022-12-06T01:59:14.263Z,3.9
2022-12-06T02:00:22.808Z,4
2022-12-06T02:01:31.227Z,4
2022-12-06T02:02:39.592Z,4
2022-12-06T02:03:48.094Z,4.4
2022-12-06T02:04:56.443Z,4.4
2022-12-06T02:06:04.789Z,4.4
2022-12-06T02:07:13.347Z,4.5
2022-12-06T02:08:21.776Z,4.5
2022-12-06T02:09:30.037Z,4.5
2022-12-06T02:10:38.610Z,4.9
2022-12-06T02:11:46.970Z,4.9
2022-12-06T02:12:55.310Z,4.9
2022-12-06T02:14:03.883Z,5.1
2022-12-06T02:15:12.199Z,5.1
2022-12-06T02:16:20.552Z,5.1
2022-12-06T02:17:29.113Z,6.1
2022-12-06T02:18:37.450Z,6.1
2022-12-06T02:19:45.798Z,6.1
2022-12-06T02:20:54.356Z,6.2
2022-12-06T02:22:02.715Z,6.2
2022-12-06T02:23:11.069Z,6.2
2022-12-06T02:24:19.606Z,6.1
2022-12-06T02:25:30.454Z,6.1
2022-12-06T02:26:36.336Z,6.1
2022-12-06T02:27:44.903Z,6.2
2022-12-06T02:28:53.249Z,6.2
2022-12-06T02:30:01.796Z,6.2
2022-12-06T02:31:10.170Z,6
2022-12-06T02:32:18.494Z,6
2022-12-06T02:33:26.830Z,6
2022-12-06T02:34:35.392Z,5.8
2022-12-06T02:35:43.738Z,5.8
2022-12-06T02:36:52.096Z,5.8
2022-12-06T02:38:00.646Z,5.9
2022-12-06T02:39:08.999Z,5.9
2022-12-06T02:40:17.360Z,5.9
2022-12-06T02:41:25.912Z,5.6
2022-12-06T02:42:34.260Z,5.6
2022-12-06T02:43:42.600Z,5.6
2022-12-06T02:44:51.140Z,5.4
2022-12-06T02:45:59.547Z,5.4
2022-12-06T02:47:07.856Z,5.4
2022-12-06T02:48:16.414Z,4.9
2022-12-06T02:49:24.745Z,4.9
2022-12-06T02:50:33.088Z,4.9
2022-12-06T02:51:41.659Z,4.2
2022-12-06T02:52:50.002Z,4.2
2022-12-06T02:53:58.398Z,4.2
2022-12-06T02:55:06.951Z,3.7
2022-12-06T02:56:15.299Z,3.7
2022-12-06T02:57:23.659Z,3.7
2022-12-06T02:58:32.216Z,4.2
2022-12-06T02:59:40.551Z,4.2
2022-12-06T03:00:48.883Z,4.2
2022-12-06T03:01:57.559Z,4.2
2022-12-06T03:03:05.857Z,4.2
2022-12-06T03:04:14.130Z,4.2
2022-12-06T03:05:22.691Z,4.7
2022-12-06T03:06:31.036Z,4.7
2022-12-06T03:07:39.455Z,4.7
2022-12-06T03:08:47.958Z,4.6
2022-12-06T03:09:56.317Z,4.6
2022-12-06T03:11:04.685Z,4.6
2022-12-06T03:12:13.261Z,4.9
2022-12-06T03:13:21.601Z,4.9
2022-12-06T03:14:29.944Z,4.9
2022-12-06T03:15:38.526Z,5.5
2022-12-06T03:16:46.843Z,5.5
2022-12-06T03:17:55.197Z,5.5
2022-12-06T03:19:03.733Z,5
2022-12-06T03:20:12.046Z,5
2022-12-06T03:21:20.405Z,5
2022-12-06T03:22:28.967Z,5.9
2022-12-06T03:23:37.317Z,5.9
2022-12-06T03:24:45.654Z,5.9
2022-12-06T03:25:54.211Z,5.8
2022-12-06T03:27:02.557Z,5.8
2022-12-06T03:28:10.914Z,5.8
2022-12-06T03:29:19.465Z,5.8
2022-12-06T03:30:27.812Z,5.8
2022-12-06T03:31:36.203Z,5.8
2022-12-06T03:32:44.715Z,6.6
2022-12-06T03:33:53.084Z,6.6
2022-12-06T03:35:01.404Z,6.6
2022-12-06T03:36:09.947Z,6.6
2022-12-06T03:37:18.299Z,6.6
2022-12-06T03:38:26.643Z,6.6
2022-12-06T03:39:35.216Z,7.3
2022-12-06T03:40:43.536Z,7.3
2022-12-06T03:41:51.892Z,7.3
2022-12-06T03:43:00.439Z,7.1
2022-12-06T03:44:08.797Z,7.1
2022-12-06T03:45:17.148Z,7.1
2022-12-06T03:46:27.792Z,8.2
2022-12-06T03:47:34.017Z,8.2
2022-12-06T03:48:42.375Z,8.2
2022-12-06T03:49:50.956Z,8.6
2022-12-06T03:50:59.289Z,8.6
2022-12-06T03:52:07.644Z,8.6
2022-12-06T03:53:16.210Z,8.5
2022-12-06T03:54:24.546Z,8.5
2022-12-06T03:55:32.899Z,8.5
2022-12-06T03:56:41.462Z,8.2
2022-12-06T03:57:49.813Z,8.2
2022-12-06T03:58:58.154Z,8.2
2022-12-06T04:00:06.692Z,8.3
2022-12-06T04:01:15.179Z,8.3
2022-12-06T04:02:23.391Z,8.3
2022-12-06T04:03:31.993Z,9
2022-12-06T04:04:40.297Z,9
2022-12-06T04:05:48.663Z,9
2022-12-06T04:06:57.204Z,8.3
2022-12-06T04:08:05.629Z,8.3
2022-12-06T04:09:13.897Z,8.3
2022-12-06T04:10:22.453Z,7.1
2022-12-06T04:11:30.804Z,7.1
2022-12-06T04:12:39.150Z,7.1
2022-12-06T04:13:47.698Z,7.6
2022-12-06T04:14:56.027Z,7.6
2022-12-06T04:16:04.431Z,7.6
2022-12-06T04:17:12.928Z,5.9
2022-12-06T04:18:21.279Z,5.9
2022-12-06T04:19:29.615Z,5.9
2022-12-06T04:20:38.154Z,5.5
2022-12-06T04:21:46.552Z,5.5
2022-12-06T04:22:54.880Z,5.5
2022-12-06T04:24:03.447Z,5
2022-12-06T04:25:11.787Z,5
2022-12-06T04:26:20.127Z,5
2022-12-06T04:27:28.680Z,4.5
2022-12-06T04:28:37.029Z,4.5
2022-12-06T04:29:45.380Z,4.5
2022-12-06T04:30:53.921Z,4.5
2022-12-06T04:32:02.334Z,4.5
2022-12-06T04:33:10.612Z,4.5
2022-12-06T04:34:19.177Z,4.1
2022-12-06T04:35:27.522Z,4.1
2022-12-06T04:36:35.876Z,4.1
2022-12-06T04:37:44.537Z,4.5
2022-12-06T04:38:52.758Z,4.5
2022-12-06T04:40:01.369Z,4.5
2022-12-06T04:41:09.656Z,4.4
2022-12-06T04:42:18.011Z,4.4
2022-12-06T04:43:26.357Z,4.4
2022-12-06T04:44:34.893Z,4.8
2022-12-06T04:45:43.244Z,4.8
2022-12-06T04:46:51.642Z,4.8
2022-12-06T04:48:00.145Z,4.8
2022-12-06T04:49:08.475Z,4.8
2022-12-06T04:50:17.080Z,4.8
2022-12-06T04:51:25.618Z,5.6
2022-12-06T04:52:35.872Z,5.6
2022-12-06T04:53:42.392Z,5.6
2022-12-06T04:54:50.914Z,5.8
2022-12-06T04:55:59.262Z,5.8
2022-12-06T04:57:07.651Z,5.8
2022-12-06T04:58:16.253Z,5.9
2022-12-06T04:59:24.588Z,5.9
2022-12-06T05:00:32.969Z,5.9
2022-12-06T05:01:41.503Z,6.4
2022-12-06T05:02:49.891Z,6.4
2022-12-06T05:03:58.330Z,6.4
2022-12-06T05:05:06.800Z,6.2
2022-12-06T05:06:15.145Z,6.2
2022-12-06T05:07:23.527Z,6.2
2022-12-06T05:08:32.076Z,6.4
2022-12-06T05:09:40.452Z,6.4
2022-12-06T05:10:48.778Z,6.4
2022-12-06T05:11:57.869Z,5.9
2022-12-06T05:13:06.212Z,5.9
2022-12-06T05:14:14.557Z,5.9
2022-12-06T05:15:26.621Z,18.5
2022-12-06T05:16:31.484Z,18.5
2022-12-06T05:17:39.791Z,18.5
2022-12-06T05:18:48.339Z,6.6
2022-12-06T05:19:56.737Z,6.6
2022-12-06T05:21:05.033Z,6.6
2022-12-06T05:22:13.596Z,6.6
2022-12-06T05:23:21.964Z,6.6
2022-12-06T05:24:30.306Z,6.6
2022-12-06T05:25:38.901Z,6.7
2022-12-06T05:26:47.229Z,6.7
2022-12-06T05:27:55.563Z,6.7
2022-12-06T05:29:04.128Z,7.1
2022-12-06T05:30:12.468Z,7.1
2022-12-06T05:31:20.849Z,7.1
2022-12-06T05:32:29.372Z,7.9
2022-12-06T05:33:37.750Z,7.9
2022-12-06T05:34:46.111Z,7.9
2022-12-06T05:35:54.649Z,8.7
2022-12-06T05:37:02.994Z,8.7
2022-12-06T05:38:11.346Z,8.7
2022-12-06T05:39:19.903Z,9.1
2022-12-06T05:40:28.256Z,9.1
2022-12-06T05:41:36.659Z,9.1
2022-12-06T05:42:45.181Z,9.3
2022-12-06T05:43:53.530Z,9.3
2022-12-06T05:45:01.875Z,9.3
2022-12-06T05:46:10.471Z,9.8
2022-12-06T05:47:18.819Z,9.8
2022-12-06T05:48:27.189Z,9.8
2022-12-06T05:49:35.754Z,10.8
2022-12-06T05:50:44.144Z,10.8
2022-12-06T05:51:52.587Z,10.8
2022-12-06T05:53:01.106Z,11.4
2022-12-06T05:54:09.456Z,11.4
2022-12-06T05:55:17.792Z,11.4
2022-12-06T05:56:26.366Z,21.9
2022-12-06T05:57:34.752Z,21.9
2022-12-06T05:58:43.067Z,21.9
2022-12-06T05:59:51.619Z,11.2
2022-12-06T06:00:59.969Z,11.2
2022-12-06T06:02:08.428Z,11.2
2022-12-06T06:03:16.990Z,10.9
2022-12-06T06:04:25.213Z,10.9
2022-12-06T06:05:33.559Z,10.9
2022-12-06T06:06:42.145Z,10
2022-12-06T06:07:50.518Z,10
2022-12-06T06:08:58.846Z,10
2022-12-06T06:10:07.384Z,9.7
2022-12-06T06:11:15.730Z,9.7
2022-12-06T06:12:24.086Z,9.7
2022-12-06T06:13:32.679Z,8.8
2022-12-06T06:14:40.998Z,8.8
2022-12-06T06:15:49.346Z,8.8
2022-12-06T06:16:57.953Z,9.4
2022-12-06T06:18:06.272Z,9.4
2022-12-06T06:19:14.614Z,9.4
2022-12-06T06:20:23.180Z,8.9
2022-12-06T06:21:31.491Z,8.9
2022-12-06T06:22:39.858Z,8.9
2022-12-06T06:23:48.420Z,8.7
2022-12-06T06:24:56.776Z,8.7
2022-12-06T06:26:05.123Z,8.7
2022-12-06T06:27:13.696Z,8.4
2022-12-06T06:28:22.456Z,8.4
2022-12-06T06:29:30.871Z,8.4
2022-12-06T06:30:39.413Z,8.3
2022-12-06T06:31:47.952Z,8.3
2022-12-06T06:32:56.236Z,8.3
2022-12-06T06:34:04.810Z,8.7
2022-12-06T06:35:13.235Z,8.7
2022-12-06T06:36:21.671Z,8.7
2022-12-06T06:37:30.274Z,7.7
2022-12-06T06:38:38.707Z,7.7
2022-12-06T06:39:47.177Z,7.7
2022-12-06T06:40:55.769Z,7.8
2022-12-06T06:42:04.214Z,7.8
2022-12-06T06:43:12.654Z,7.8
2022-12-06T06:44:21.325Z,8
2022-12-06T06:45:29.721Z,8
2022-12-06T06:46:38.057Z,8
2022-12-06T06:47:46.765Z,8.3
2022-12-06T06:48:55.277Z,8.3
2022-12-06T06:50:03.824Z,8.3
2022-12-06T06:51:12.407Z,7.5
2022-12-06T06:52:20.891Z,7.5
2022-12-06T06:53:29.355Z,7.5
2022-12-06T06:54:38.046Z,10.1
2022-12-06T06:55:46.436Z,10.1
2022-12-06T06:56:54.939Z,10.1
2022-12-06T06:58:03.630Z,14.2
2022-12-06T06:59:12.018Z,14.2
2022-12-06T07:00:20.427Z,14.2
2022-12-06T07:01:29.144Z,8.1
2022-12-06T07:02:37.600Z,8.1
2022-12-06T07:03:45.981Z,8.1
2022-12-06T07:04:54.580Z,7.4
2022-12-06T07:06:03.041Z,7.4
2022-12-06T07:07:13.325Z,7.4
2022-12-06T07:08:20.195Z,6.8
2022-12-06T07:09:28.526Z,6.8
2022-12-06T07:10:37.062Z,6.8
2022-12-06T07:11:45.664Z,6.7
2022-12-06T07:12:54.102Z,6.7
2022-12-06T07:14:02.552Z,6.7
2022-12-06T07:15:11.218Z,5.9
2022-12-06T07:16:19.796Z,5.9
2022-12-06T07:17:28.772Z,5.9
2022-12-06T07:18:37.392Z,6.2
2022-12-06T07:19:45.854Z,6.2
2022-12-06T07:20:54.311Z,6.2
2022-12-06T07:22:03.052Z,5.5
2022-12-06T07:23:11.475Z,5.5
2022-12-06T07:24:20.011Z,5.5
2022-12-06T07:25:28.726Z,6.8
2022-12-06T07:26:37.161Z,6.8
2022-12-06T07:27:50.279Z,6.8
2022-12-06T07:28:58.986Z,7.3
2022-12-06T07:30:07.412Z,7.3
2022-12-06T07:31:15.971Z,7.3
2022-12-06T07:32:24.618Z,5.8
2022-12-06T07:33:33.186Z,5.8
2022-12-06T07:34:41.547Z,5.8
2022-12-06T07:36:11.269Z,6.4
2022-12-06T07:36:58.640Z,6.4
2022-12-06T07:38:07.055Z,6.4
2022-12-06T07:39:15.642Z,7.5
2022-12-06T07:40:41.531Z,7.5
2022-12-06T07:41:32.544Z,7.5
2022-12-06T07:42:41.190Z,6.5
2022-12-06T07:43:49.591Z,6.5
2022-12-06T07:45:01.517Z,6.5
2022-12-06T07:46:06.627Z,4.2
2022-12-06T07:47:14.956Z,4.2
2022-12-06T07:48:23.405Z,4.2
2022-12-06T07:49:32.103Z,4
2022-12-06T07:50:40.490Z,4
2022-12-06T07:51:48.935Z,4
2022-12-06T07:52:57.613Z,3.8
2022-12-06T07:54:06.084Z,3.8
2022-12-06T07:55:17.246Z,3.8
2022-12-06T07:56:25.932Z,3.3
2022-12-06T07:57:37.329Z,3.3
2022-12-06T07:58:42.832Z,3.3
2022-12-06T07:59:51.488Z,3.3
2022-12-06T08:01:00.104Z,3.3
2022-12-06T08:02:08.504Z,3.3
2022-12-06T08:03:17.056Z,3.1
2022-12-06T08:04:25.651Z,3.1
2022-12-06T08:05:34.055Z,3.1
2022-12-06T08:06:42.732Z,3.3
2022-12-06T08:07:51.178Z,3.3
2022-12-06T08:08:59.616Z,3.3
2022-12-06T08:10:08.238Z,4.1
2022-12-06T08:11:16.640Z,4.1
2022-12-06T08:12:25.748Z,4.1
2022-12-06T08:13:35.009Z,4.2
2022-12-06T08:14:43.578Z,4.2
2022-12-06T08:15:52.108Z,4.2
2022-12-06T08:17:00.682Z,5.7
2022-12-06T08:18:09.119Z,5.7
2022-12-06T08:19:17.561Z,5.7
2022-12-06T08:20:26.260Z,4.1
2022-12-06T08:21:34.605Z,4.1
2022-12-06T08:22:42.990Z,4.1
2022-12-06T08:23:51.606Z,4.8
2022-12-06T08:24:59.979Z,4.8
2022-12-06T08:26:08.483Z,4.8
2022-12-06T08:27:17.174Z,5
2022-12-06T08:28:25.609Z,5
2022-12-06T08:29:34.109Z,5
2022-12-06T08:30:42.748Z,5.1
2022-12-06T08:31:51.044Z,5.1
2022-12-06T08:32:59.604Z,5.1
2022-12-06T08:34:08.292Z,5.7
2022-12-06T08:35:16.724Z,5.7
2022-12-06T08:36:25.185Z,5.7
2022-12-06T08:37:33.872Z,9.2
2022-12-06T08:38:42.355Z,9.2
2022-12-06T08:39:50.829Z,9.2
2022-12-06T08:40:59.511Z,10.2
2022-12-06T08:42:07.953Z,10.2
2022-12-06T08:43:16.414Z,10.2
2022-12-06T08:44:25.046Z,10.8
2022-12-06T08:45:33.440Z,10.8
2022-12-06T08:46:41.912Z,10.8
2022-12-06T08:47:50.588Z,11.6
2022-12-06T08:48:58.973Z,11.6
2022-12-06T08:50:07.493Z,11.6
2022-12-06T08:51:16.145Z,9.2
2022-12-06T08:52:24.685Z,9.2
2022-12-06T08:53:33.133Z,9.2
2022-12-06T08:54:41.772Z,8.2
2022-12-06T08:55:50.243Z,8.2
2022-12-06T08:56:58.773Z,8.2
2022-12-06T08:58:07.429Z,12
2022-12-06T08:59:15.869Z,12
2022-12-06T09:00:24.412Z,12
2022-12-06T09:01:37.642Z,8.7
2022-12-06T09:02:41.431Z,8.7
2022-12-06T09:03:50.737Z,8.7
2022-12-06T09:04:59.379Z,6.6
2022-12-06T09:06:07.792Z,6.6
2022-12-06T09:07:16.210Z,6.6
2022-12-06T09:08:24.908Z,8.3
2022-12-06T09:09:33.303Z,8.3
2022-12-06T09:10:41.687Z,8.3
2022-12-06T09:11:50.384Z,8.7
2022-12-06T09:12:58.801Z,8.7
2022-12-06T09:14:07.779Z,8.7
2022-12-06T09:15:16.379Z,8.6
2022-12-06T09:16:24.939Z,8.6
2022-12-06T09:17:33.268Z,8.6
2022-12-06T09:18:41.880Z,7.6
2022-12-06T09:19:50.299Z,7.6
2022-12-06T09:20:58.821Z,7.6
2022-12-06T09:22:07.389Z,6.5
2022-12-06T09:23:15.863Z,6.5
2022-12-06T09:24:24.322Z,6.5
2022-12-06T09:25:33.081Z,6
2022-12-06T09:26:41.518Z,6
2022-12-06T09:27:49.970Z,6
2022-12-06T09:28:58.650Z,5.6
2022-12-06T09:30:07.143Z,5.6
2022-12-06T09:31:15.638Z,5.6
2022-12-06T09:32:35.366Z,5.6
2022-12-06T09:33:43.816Z,5.6
2022-12-06T09:34:52.261Z,5.6
2022-12-06T09:36:00.876Z,7.9
2022-12-06T09:37:09.286Z,7.9
2022-12-06T09:38:17.673Z,7.9
2022-12-06T09:39:26.482Z,12.6
2022-12-06T09:40:38.555Z,12.6
2022-12-06T09:41:43.498Z,12.6
2022-12-06T09:42:52.121Z,7.7
2022-12-06T09:44:00.563Z,7.7
2022-12-06T09:45:09.186Z,7.7
2022-12-06T09:46:17.859Z,6.7
2022-12-06T09:47:26.401Z,6.7
2022-12-06T09:48:34.792Z,6.7
2022-12-06T09:49:43.493Z,4.7
2022-12-06T09:50:51.934Z,4.7
2022-12-06T09:52:00.433Z,4.7
2022-12-06T09:53:09.198Z,6.4
2022-12-06T09:54:17.637Z,6.4
2022-12-06T09:55:26.108Z,6.4
2022-12-06T09:56:34.758Z,4
2022-12-06T09:57:43.231Z,4
2022-12-06T09:58:51.704Z,4
2022-12-06T10:00:01.030Z,3.8
2022-12-06T10:01:09.070Z,3.8
2022-12-06T10:02:17.534Z,3.8
2022-12-06T10:03:26.217Z,3.9
2022-12-06T10:04:34.521Z,3.9
2022-12-06T10:05:42.984Z,3.9
2022-12-06T10:06:51.580Z,4
2022-12-06T10:08:00.877Z,4
2022-12-06T10:09:09.353Z,4
2022-12-06T10:10:17.885Z,3.8
2022-12-06T10:11:26.372Z,3.8
2022-12-06T10:12:34.745Z,3.8
2022-12-06T10:13:43.367Z,4.2
2022-12-06T10:14:51.779Z,4.2
2022-12-06T10:16:00.261Z,4.2
2022-12-06T10:17:09.650Z,3.8
2022-12-06T10:18:17.213Z,3.8
2022-12-06T10:19:25.599Z,3.8
2022-12-06T10:20:34.217Z,5.2
2022-12-06T10:21:42.668Z,5.2
2022-12-06T10:22:51.116Z,5.2
2022-12-06T10:24:01.771Z,6.2
2022-12-06T10:25:08.300Z,6.2
2022-12-06T10:26:16.832Z,6.2
2022-12-06T10:27:25.490Z,6.6
2022-12-06T10:28:33.961Z,6.6
2022-12-06T10:29:42.412Z,6.6
2022-12-06T10:30:51.069Z,7.5
2022-12-06T10:31:59.540Z,7.5
2022-12-06T10:33:07.949Z,7.5
2022-12-06T10:34:16.575Z,6.1
2022-12-06T10:35:25.004Z,6.1
2022-12-06T10:36:33.418Z,6.1
2022-12-06T10:37:42.097Z,6.3
2022-12-06T10:38:50.455Z,6.3
2022-12-06T10:39:58.831Z,6.3
2022-12-06T10:41:07.463Z,6.1
2022-12-06T10:42:15.926Z,6.1
2022-12-06T10:43:24.291Z,6.1
2022-12-06T10:44:32.909Z,6.2
2022-12-06T10:45:41.457Z,6.2
2022-12-06T10:46:49.962Z,6.2
2022-12-06T10:47:58.496Z,5.9
2022-12-06T10:49:06.898Z,5.9
2022-12-06T10:50:15.252Z,5.9
2022-12-06T10:51:23.856Z,6
2022-12-06T10:52:32.321Z,6
2022-12-06T10:53:40.705Z,6
2022-12-06T10:54:49.329Z,5.8
2022-12-06T10:55:57.747Z,5.8
2022-12-06T10:57:06.146Z,5.8
2022-12-06T10:58:14.735Z,6
2022-12-06T10:59:23.258Z,6
2022-12-06T11:00:31.702Z,6
2022-12-06T11:01:40.394Z,6.6
2022-12-06T11:02:48.772Z,6.6
2022-12-06T11:03:57.223Z,6.6
2022-12-06T11:05:05.809Z,4.7
2022-12-06T11:06:14.209Z,4.7
2022-12-06T11:07:22.710Z,4.7
2022-12-06T11:08:31.289Z,4.5
2022-12-06T11:09:39.743Z,4.5
2022-12-06T11:10:48.297Z,4.5
2022-12-06T11:11:56.879Z,4.7
2022-12-06T11:13:05.294Z,4.7
2022-12-06T11:14:13.768Z,4.7
2022-12-06T11:15:22.425Z,5
2022-12-06T11:16:30.850Z,5
2022-12-06T11:17:39.229Z,5
2022-12-06T11:18:47.799Z,4.3
2022-12-06T11:19:56.232Z,4.3
2022-12-06T11:21:04.620Z,4.3
2022-12-06T11:22:13.350Z,4.4
2022-12-06T11:23:21.850Z,4.4
2022-12-06T11:24:30.320Z,4.4
2022-12-06T11:25:38.929Z,4.5
2022-12-06T11:26:47.360Z,4.5
2022-12-06T11:27:55.840Z,4.5
2022-12-06T11:29:04.546Z,4.6
2022-12-06T11:30:15.699Z,4.6
2022-12-06T11:31:21.377Z,4.6
2022-12-06T11:32:29.958Z,4.2
2022-12-06T11:33:38.439Z,4.2
2022-12-06T11:34:46.855Z,4.2
2022-12-06T11:35:55.612Z,4.1
2022-12-06T11:37:04.021Z,4.1
2022-12-06T11:38:12.430Z,4.1
2022-12-06T11:39:21.081Z,4
2022-12-06T11:40:29.456Z,4
2022-12-06T11:41:37.847Z,4
2022-12-06T11:42:46.811Z,3.7
2022-12-06T11:43:55.179Z,3.7
2022-12-06T11:45:03.846Z,3.7
2022-12-06T11:46:12.323Z,3.7
2022-12-06T11:47:20.812Z,3.7
2022-12-06T11:48:29.290Z,3.7
2022-12-06T11:49:37.928Z,3.2
2022-12-06T11:50:46.386Z,3.2
2022-12-06T11:51:54.983Z,3.2
2022-12-06T11:53:03.612Z,3.2
2022-12-06T11:54:12.194Z,3.2
2022-12-06T11:55:20.687Z,3.2
2022-12-06T11:56:29.423Z,3.5
2022-12-06T11:57:38.514Z,3.5
2022-12-06T11:58:46.973Z,3.5
2022-12-06T11:59:56.836Z,3.9
2022-12-06T12:01:04.718Z,3.9
2022-12-06T12:02:18.069Z,3.9
2022-12-06T12:03:21.744Z,3.6
2022-12-06T12:04:39.880Z,3.6
2022-12-06T12:06:01.493Z,3.6
2022-12-06T12:07:18.112Z,3.9
2022-12-06T12:08:31.165Z,3.9
2022-12-06T12:09:34.947Z,3.9
2022-12-06T12:10:43.559Z,3.4
2022-12-06T12:11:51.944Z,3.4
2022-12-06T12:13:00.355Z,3.4
2022-12-06T12:14:08.934Z,3.3
2022-12-06T12:15:17.329Z,3.3
2022-12-06T12:16:25.732Z,3.3
2022-12-06T12:17:34.345Z,3.4
2022-12-06T12:18:42.713Z,3.4
2022-12-06T12:19:51.157Z,3.4
2022-12-06T12:20:59.707Z,2.9
2022-12-06T12:22:08.127Z,2.9
2022-12-06T12:23:16.463Z,2.9
2022-12-06T12:24:25.074Z,2.9
2022-12-06T12:25:33.385Z,2.9
2022-12-06T12:26:41.787Z,2.9
2022-12-06T12:27:50.361Z,3.3
2022-12-06T12:28:58.729Z,3.3
2022-12-06T12:30:07.089Z,3.3
2022-12-06T12:31:15.705Z,2.8
2022-12-06T12:32:24.151Z,2.8
2022-12-06T12:33:32.560Z,2.8
2022-12-06T12:34:43.157Z,2.6
2022-12-06T12:35:51.221Z,2.6
2022-12-06T12:36:59.586Z,2.6
2022-12-06T12:38:08.213Z,2.5
2022-12-06T12:39:16.560Z,2.5
2022-12-06T12:40:24.908Z,2.5
2022-12-06T12:41:33.498Z,2.7
2022-12-06T12:42:41.869Z,2.7
2022-12-06T12:44:02.323Z,2.7
2022-12-06T12:44:59.160Z,3
2022-12-06T12:46:07.207Z,3
2022-12-06T12:47:15.550Z,3
2022-12-06T12:48:24.146Z,2.7
2022-12-06T12:49:32.521Z,2.7
2022-12-06T12:50:40.863Z,2.7
2022-12-06T12:51:49.437Z,2.8
2022-12-06T12:52:57.777Z,2.8
2022-12-06T12:54:06.176Z,2.8
2022-12-06T12:55:14.746Z,2.6
2022-12-06T12:56:23.105Z,2.6
2022-12-06T12:57:31.505Z,2.6
2022-12-06T12:58:40.060Z,2.8
2022-12-06T12:59:48.471Z,2.8
2022-12-06T13:00:56.864Z,2.8
2022-12-06T13:02:05.443Z,3
2022-12-06T13:03:34.729Z,3
2022-12-06T13:04:22.141Z,3
2022-12-06T13:05:33.597Z,2.9
2022-12-06T13:06:39.087Z,2.9
2022-12-06T13:07:47.530Z,2.9
2022-12-06T13:08:56.056Z,3
2022-12-06T13:10:04.430Z,3
2022-12-06T13:11:12.749Z,3
2022-12-06T13:12:21.349Z,2.8
2022-12-06T13:13:29.745Z,2.8
2022-12-06T13:14:38.114Z,2.8
2022-12-06T13:15:46.708Z,4.5
2022-12-06T13:16:55.155Z,4.5
2022-12-06T13:18:03.425Z,4.5
2022-12-06T13:19:12.035Z,3.3
2022-12-06T13:20:20.386Z,3.3
2022-12-06T13:21:28.748Z,3.3
2022-12-06T13:22:37.356Z,3.5
2022-12-06T13:23:45.686Z,3.5
2022-12-06T13:24:54.073Z,3.5
2022-12-06T13:26:02.677Z,3.1
2022-12-06T13:27:11.011Z,3.1
2022-12-06T13:28:19.366Z,3.1
2022-12-06T13:29:27.937Z,3.2
2022-12-06T13:30:36.352Z,3.2
2022-12-06T13:31:44.651Z,3.2
2022-12-06T13:32:53.230Z,3
2022-12-06T13:34:01.598Z,3
2022-12-06T13:35:09.973Z,3
2022-12-06T13:36:18.509Z,4.2
2022-12-06T13:37:26.887Z,4.2
2022-12-06T13:38:35.242Z,4.2
2022-12-06T13:39:43.810Z,3.5
2022-12-06T13:40:52.215Z,3.5
2022-12-06T13:42:00.619Z,3.5
2022-12-06T13:43:09.208Z,3.1
2022-12-06T13:44:17.569Z,3.1
2022-12-06T13:45:25.933Z,3.1
2022-12-06T13:46:34.600Z,3
2022-12-06T13:47:42.878Z,3
2022-12-06T13:48:51.247Z,3
2022-12-06T13:49:59.787Z,2.7
2022-12-06T13:51:08.152Z,2.7
2022-12-06T13:52:16.505Z,2.7
2022-12-06T13:53:25.117Z,2.5
2022-12-06T13:54:33.501Z,2.5
2022-12-06T13:55:41.832Z,2.5
2022-12-06T13:56:50.418Z,3.1
2022-12-06T13:57:58.803Z,3.1
2022-12-06T13:59:07.140Z,3.1
2022-12-06T14:00:15.692Z,2.7
2022-12-06T14:01:24.331Z,2.7
2022-12-06T14:02:32.694Z,2.7
2022-12-06T14:03:41.236Z,3.1
2022-12-06T14:04:49.596Z,3.1
2022-12-06T14:06:58.317Z,3.7
2022-12-06T14:08:07.381Z,3.7
2022-12-06T14:09:15.694Z,3.7
2022-12-06T14:10:24.302Z,3.4
2022-12-06T14:11:36.699Z,3.4
2022-12-06T14:12:41.124Z,3.4
2022-12-06T14:13:49.722Z,3.2
2022-12-06T14:14:58.065Z,3.2
2022-12-06T14:16:06.476Z,3.2
2022-12-06T14:17:26.913Z,3.1
2022-12-06T14:18:23.408Z,3.1
2022-12-06T14:19:31.768Z,3.1
2022-12-06T14:20:40.377Z,2.5
2022-12-06T14:21:48.699Z,2.5
2022-12-06T14:22:57.134Z,2.5
2022-12-06T14:24:05.727Z,2.6
2022-12-06T14:25:14.076Z,2.6
2022-12-06T14:26:22.462Z,2.6
2022-12-06T14:27:31.043Z,1.9
2022-12-06T14:28:39.386Z,1.9
2022-12-06T14:29:47.764Z,1.9
2022-12-06T14:30:56.383Z,1.7
2022-12-06T15:05:02.191Z,0
2022-12-06T15:06:10.604Z,0
2022-12-06T15:07:19.005Z,0
2022-12-06T15:08:27.588Z,2
2022-12-06T15:09:36.047Z,2
2022-12-06T15:10:44.444Z,2
2022-12-06T15:11:53.076Z,1.6
2022-12-06T15:13:02.192Z,1.6
2022-12-06T15:14:11.786Z,1.6
2022-12-06T15:15:20.298Z,1.8
2022-12-06T15:16:29.107Z,1.8
2022-12-06T15:17:37.414Z,1.8
2022-12-06T15:18:46.012Z,1.8
2022-12-06T15:19:54.375Z,1.8
2022-12-06T15:21:02.748Z,1.8
2022-12-06T15:22:11.290Z,1.6
2022-12-06T15:23:19.646Z,1.6
2022-12-06T15:24:28.020Z,1.6
2022-12-06T15:25:36.568Z,2
2022-12-06T15:26:44.920Z,2
2022-12-06T15:27:53.316Z,2
2022-12-06T15:29:01.874Z,1.5
2022-12-06T15:30:10.238Z,1.5
2022-12-06T15:31:18.649Z,1.5
2022-12-06T15:32:27.246Z,2.2
2022-12-06T15:33:35.647Z,2.2
2022-12-06T15:34:43.993Z,2.2
2022-12-06T15:35:52.574Z,2.9
2022-12-06T15:37:36.683Z,2.9
2022-12-06T15:38:09.276Z,2.9
2022-12-06T15:39:17.868Z,2.5
2022-12-06T15:40:26.210Z,2.5
2022-12-06T15:41:34.585Z,2.5
2022-12-06T15:42:43.838Z,1.9
2022-12-06T15:43:52.275Z,1.9
2022-12-06T15:45:00.811Z,1.9
2022-12-06T15:46:09.261Z,1.5
2022-12-06T15:47:17.629Z,1.5
2022-12-06T15:48:26.008Z,1.5
2022-12-06T15:49:34.603Z,2.8
2022-12-06T15:50:42.986Z,2.8
2022-12-06T15:51:51.346Z,2.8
2022-12-06T15:53:00.031Z,3
2022-12-06T15:54:08.387Z,3
2022-12-06T15:55:16.755Z,3
2022-12-06T15:56:25.329Z,2.8
2022-12-06T15:57:33.715Z,2.8
2022-12-06T15:58:42.076Z,2.8
2022-12-06T15:59:50.648Z,1.9
2022-12-06T16:00:59.027Z,1.9
2022-12-06T16:02:07.396Z,1.9
2022-12-06T16:03:15.999Z,4.2
2022-12-06T16:04:24.300Z,4.2
2022-12-06T16:05:32.662Z,4.2
2022-12-06T16:06:41.240Z,4.1
2022-12-06T16:07:49.684Z,4.1
2022-12-06T16:08:57.983Z,4.1
2022-12-06T16:10:06.541Z,2.1
2022-12-06T16:11:14.893Z,2.1
2022-12-06T16:12:23.280Z,2.1
2022-12-06T16:13:31.825Z,2.2
2022-12-06T16:14:40.174Z,2.2
2022-12-06T16:15:48.612Z,2.2
2022-12-06T16:16:57.126Z,2
2022-12-06T16:18:05.480Z,2
2022-12-06T16:19:13.860Z,2
2022-12-06T16:20:22.410Z,2.3
2022-12-06T16:21:30.783Z,2.3
2022-12-06T16:22:39.154Z,2.3